sensor_id;sensor_type;location;lat;lon;timestamp;P1;durP1;ratioP1;P2;durP2;ratioP2
22780;SDS011;11557;50.884;4.322;2023-02-12T00:01:39;26.60;;;20.15;;
22780;SDS011;11557;50.884;4.322;2023-02-12T00:04:04;21.33;;;18.40;;
22780;SDS011;11557;50.884;4.322;2023-02-12T00:06:30;19.98;;;17.88;;
22780;SDS011;11557;50.884;4.322;2023-02-12T00:08:56;21.60;;;18.23;;
22780;SDS011;11557;50.884;4.322;2023-02-12T00:11:23;20.80;;;17.50;;
22780;SDS011;11557;50.884;4.322;2023-02-12T00:13:50;20.17;;;17.80;;
22780;SDS011;11557;50.884;4.322;2023-02-12T00:16:25;21.33;;;17.48;;
22780;SDS011;11557;50.884;4.322;2023-02-12T00:18:53;19.73;;;17.08;;
22780;SDS011;11557;50.884;4.322;2023-02-12T00:21:20;20.83;;;17.60;;
22780;SDS011;11557;50.884;4.322;2023-02-12T00:23:46;19.95;;;17.25;;
22780;SDS011;11557;50.884;4.322;2023-02-12T00:26:13;20.35;;;17.63;;
22780;SDS011;11557;50.884;4.322;2023-02-12T00:28:40;22.63;;;18.30;;
22780;SDS011;11557;50.884;4.322;2023-02-12T00:31:07;19.98;;;17.88;;
22780;SDS011;11557;50.884;4.322;2023-02-12T00:33:34;20.48;;;18.05;;
22780;SDS011;11557;50.884;4.322;2023-02-12T00:35:59;23.30;;;18.38;;
22780;SDS011;11557;50.884;4.322;2023-02-12T00:38:25;21.58;;;17.88;;
22780;SDS011;11557;50.884;4.322;2023-02-12T00:40:51;19.67;;;17.58;;
22780;SDS011;11557;50.884;4.322;2023-02-12T00:43:17;21.13;;;16.73;;
22780;SDS011;11557;50.884;4.322;2023-02-12T00:45:44;21.73;;;17.63;;
22780;SDS011;11557;50.884;4.322;2023-02-12T00:48:10;20.05;;;17.20;;
22780;SDS011;11557;50.884;4.322;2023-02-12T00:50:36;20.13;;;16.45;;
22780;SDS011;11557;50.884;4.322;2023-02-12T00:53:01;20.40;;;17.48;;
22780;SDS011;11557;50.884;4.322;2023-02-12T00:55:27;20.05;;;17.73;;
22780;SDS011;11557;50.884;4.322;2023-02-12T00:57:53;21.88;;;16.90;;
22780;SDS011;11557;50.884;4.322;2023-02-12T01:00:18;19.73;;;17.65;;
22780;SDS011;11557;50.884;4.322;2023-02-12T01:02:44;23.73;;;18.67;;
22780;SDS011;11557;50.884;4.322;2023-02-12T01:05:10;21.35;;;16.60;;
22780;SDS011;11557;50.884;4.322;2023-02-12T01:07:35;19.05;;;17.05;;
22780;SDS011;11557;50.884;4.322;2023-02-12T01:10:02;16.35;;;14.68;;
22780;SDS011;11557;50.884;4.322;2023-02-12T01:12:29;17.75;;;15.98;;
22780;SDS011;11557;50.884;4.322;2023-02-12T01:14:56;18.58;;;16.67;;
22780;SDS011;11557;50.884;4.322;2023-02-12T01:17:21;18.67;;;16.63;;
22780;SDS011;11557;50.884;4.322;2023-02-12T01:19:47;16.33;;;14.45;;
22780;SDS011;11557;50.884;4.322;2023-02-12T01:22:13;18.13;;;16.33;;
22780;SDS011;11557;50.884;4.322;2023-02-12T01:24:39;18.52;;;16.52;;
22780;SDS011;11557;50.884;4.322;2023-02-12T01:27:04;18.48;;;16.65;;
22780;SDS011;11557;50.884;4.322;2023-02-12T01:29:30;19.05;;;17.00;;
22780;SDS011;11557;50.884;4.322;2023-02-12T01:31:56;17.25;;;15.55;;
22780;SDS011;11557;50.884;4.322;2023-02-12T01:34:22;19.30;;;17.45;;
22780;SDS011;11557;50.884;4.322;2023-02-12T01:36:47;21.13;;;19.10;;
22780;SDS011;11557;50.884;4.322;2023-02-12T01:39:14;21.42;;;19.38;;
22780;SDS011;11557;50.884;4.322;2023-02-12T01:41:42;20.75;;;18.65;;
22780;SDS011;11557;50.884;4.322;2023-02-12T01:44:16;23.08;;;18.48;;
22780;SDS011;11557;50.884;4.322;2023-02-12T01:46:47;20.13;;;18.13;;
22780;SDS011;11557;50.884;4.322;2023-02-12T01:49:20;21.55;;;19.15;;
22780;SDS011;11557;50.884;4.322;2023-02-12T01:52:09;21.92;;;19.67;;
22780;SDS011;11557;50.884;4.322;2023-02-12T01:54:39;22.38;;;19.95;;
22780;SDS011;11557;50.884;4.322;2023-02-12T01:57:07;22.67;;;19.83;;
22780;SDS011;11557;50.884;4.322;2023-02-12T01:59:36;24.10;;;20.40;;
22780;SDS011;11557;50.884;4.322;2023-02-12T02:02:03;22.33;;;20.00;;
22780;SDS011;11557;50.884;4.322;2023-02-12T02:04:31;21.48;;;19.27;;
22780;SDS011;11557;50.884;4.322;2023-02-12T02:07:01;22.52;;;20.13;;
22780;SDS011;11557;50.884;4.322;2023-02-12T02:09:30;21.10;;;19.00;;
22780;SDS011;11557;50.884;4.322;2023-02-12T02:11:59;21.52;;;19.42;;
22780;SDS011;11557;50.884;4.322;2023-02-12T02:14:43;24.00;;;20.13;;
22780;SDS011;11557;50.884;4.322;2023-02-12T02:17:56;22.40;;;20.10;;
22780;SDS011;11557;50.884;4.322;2023-02-12T02:20:29;22.10;;;19.58;;
22780;SDS011;11557;50.884;4.322;2023-02-12T02:34:37;19.33;;;17.42;;
22780;SDS011;11557;50.884;4.322;2023-02-12T02:37:24;21.25;;;18.35;;
22780;SDS011;11557;50.884;4.322;2023-02-12T02:39:58;20.98;;;18.75;;
22780;SDS011;11557;50.884;4.322;2023-02-12T02:42:54;21.15;;;18.92;;
22780;SDS011;11557;50.884;4.322;2023-02-12T02:45:28;21.05;;;18.73;;
22780;SDS011;11557;50.884;4.322;2023-02-12T02:48:17;22.08;;;19.65;;
22780;SDS011;11557;50.884;4.322;2023-02-12T02:50:49;21.75;;;18.85;;
22780;SDS011;11557;50.884;4.322;2023-02-12T02:53:30;22.60;;;19.55;;
22780;SDS011;11557;50.884;4.322;2023-02-12T02:56:06;22.45;;;20.00;;
22780;SDS011;11557;50.884;4.322;2023-02-12T03:01:37;22.67;;;19.67;;
22780;SDS011;11557;50.884;4.322;2023-02-12T03:04:28;23.50;;;21.10;;
22780;SDS011;11557;50.884;4.322;2023-02-12T03:09:50;25.40;;;22.42;;
22780;SDS011;11557;50.884;4.322;2023-02-12T03:12:23;25.40;;;22.15;;
22780;SDS011;11557;50.884;4.322;2023-02-12T03:14:58;24.60;;;22.20;;
22780;SDS011;11557;50.884;4.322;2023-02-12T03:17:31;28.80;;;23.58;;
22780;SDS011;11557;50.884;4.322;2023-02-12T03:20:03;26.25;;;23.55;;
22780;SDS011;11557;50.884;4.322;2023-02-12T03:22:38;25.77;;;23.17;;
22780;SDS011;11557;50.884;4.322;2023-02-12T03:25:10;28.50;;;25.50;;
22780;SDS011;11557;50.884;4.322;2023-02-12T03:27:43;32.13;;;26.05;;
22780;SDS011;11557;50.884;4.322;2023-02-12T03:30:20;28.23;;;25.17;;
22780;SDS011;11557;50.884;4.322;2023-02-12T03:35:16;29.88;;;26.73;;
22780;SDS011;11557;50.884;4.322;2023-02-12T03:40:34;35.63;;;28.50;;
22780;SDS011;11557;50.884;4.322;2023-02-12T03:43:18;33.65;;;29.48;;
22780;SDS011;11557;50.884;4.322;2023-02-12T03:48:29;30.80;;;27.63;;
22780;SDS011;11557;50.884;4.322;2023-02-12T03:51:51;31.45;;;27.95;;
22780;SDS011;11557;50.884;4.322;2023-02-12T03:53:51;30.63;;;27.08;;
22780;SDS011;11557;50.884;4.322;2023-02-12T03:56:21;27.52;;;24.13;;
22780;SDS011;11557;50.884;4.322;2023-02-12T03:58:51;25.30;;;22.60;;
22780;SDS011;11557;50.884;4.322;2023-02-12T04:01:16;24.50;;;21.98;;
22780;SDS011;11557;50.884;4.322;2023-02-12T04:03:43;25.52;;;22.83;;
22780;SDS011;11557;50.884;4.322;2023-02-12T04:06:21;24.80;;;22.23;;
22780;SDS011;11557;50.884;4.322;2023-02-12T04:08:49;27.35;;;24.23;;
22780;SDS011;11557;50.884;4.322;2023-02-12T04:11:19;29.48;;;26.25;;
22780;SDS011;11557;50.884;4.322;2023-02-12T04:14:04;31.35;;;26.52;;
22780;SDS011;11557;50.884;4.322;2023-02-12T04:16:46;30.42;;;27.25;;
22780;SDS011;11557;50.884;4.322;2023-02-12T04:20:23;32.58;;;27.23;;
22780;SDS011;11557;50.884;4.322;2023-02-12T04:25:15;30.83;;;27.25;;
22780;SDS011;11557;50.884;4.322;2023-02-12T04:27:56;31.50;;;28.20;;
22780;SDS011;11557;50.884;4.322;2023-02-12T04:30:25;32.33;;;28.42;;
22780;SDS011;11557;50.884;4.322;2023-02-12T04:32:58;31.70;;;28.27;;
22780;SDS011;11557;50.884;4.322;2023-02-12T04:40:57;32.42;;;27.80;;
22780;SDS011;11557;50.884;4.322;2023-02-12T04:43:27;32.50;;;27.85;;
22780;SDS011;11557;50.884;4.322;2023-02-12T04:45:54;31.60;;;27.63;;
22780;SDS011;11557;50.884;4.322;2023-02-12T04:48:20;37.63;;;27.33;;
22780;SDS011;11557;50.884;4.322;2023-02-12T04:50:46;29.80;;;26.27;;
22780;SDS011;11557;50.884;4.322;2023-02-12T04:53:11;28.20;;;25.05;;
22780;SDS011;11557;50.884;4.322;2023-02-12T04:55:37;30.38;;;25.73;;
22780;SDS011;11557;50.884;4.322;2023-02-12T04:58:03;27.13;;;24.13;;
22780;SDS011;11557;50.884;4.322;2023-02-12T05:00:29;28.15;;;24.77;;
22780;SDS011;11557;50.884;4.322;2023-02-12T05:02:55;28.45;;;25.35;;
22780;SDS011;11557;50.884;4.322;2023-02-12T05:05:21;28.38;;;25.15;;
22780;SDS011;11557;50.884;4.322;2023-02-12T05:07:46;29.35;;;25.98;;
22780;SDS011;11557;50.884;4.322;2023-02-12T05:10:13;30.02;;;26.80;;
22780;SDS011;11557;50.884;4.322;2023-02-12T05:12:39;32.60;;;26.08;;
22780;SDS011;11557;50.884;4.322;2023-02-12T05:15:05;32.33;;;26.90;;
22780;SDS011;11557;50.884;4.322;2023-02-12T05:17:31;33.28;;;27.95;;
22780;SDS011;11557;50.884;4.322;2023-02-12T05:19:57;29.23;;;26.13;;
22780;SDS011;11557;50.884;4.322;2023-02-12T05:22:22;29.77;;;25.98;;
22780;SDS011;11557;50.884;4.322;2023-02-12T05:24:48;29.45;;;25.48;;
22780;SDS011;11557;50.884;4.322;2023-02-12T05:27:14;29.48;;;26.27;;
22780;SDS011;11557;50.884;4.322;2023-02-12T05:29:39;29.95;;;26.77;;
22780;SDS011;11557;50.884;4.322;2023-02-12T05:32:05;29.58;;;26.42;;
22780;SDS011;11557;50.884;4.322;2023-02-12T05:34:31;31.85;;;26.42;;
22780;SDS011;11557;50.884;4.322;2023-02-12T05:36:57;32.85;;;27.65;;
22780;SDS011;11557;50.884;4.322;2023-02-12T05:39:23;33.58;;;27.63;;
22780;SDS011;11557;50.884;4.322;2023-02-12T05:41:49;33.08;;;28.63;;
22780;SDS011;11557;50.884;4.322;2023-02-12T05:44:15;34.70;;;27.77;;
22780;SDS011;11557;50.884;4.322;2023-02-12T05:46:41;34.55;;;28.33;;
22780;SDS011;11557;50.884;4.322;2023-02-12T05:49:08;29.80;;;26.58;;
22780;SDS011;11557;50.884;4.322;2023-02-12T05:51:34;31.25;;;27.77;;
22780;SDS011;11557;50.884;4.322;2023-02-12T05:54:00;31.50;;;27.08;;
22780;SDS011;11557;50.884;4.322;2023-02-12T05:56:31;30.92;;;27.55;;
22780;SDS011;11557;50.884;4.322;2023-02-12T05:59:01;33.08;;;26.70;;
22780;SDS011;11557;50.884;4.322;2023-02-12T06:03:59;31.70;;;27.80;;
22780;SDS011;11557;50.884;4.322;2023-02-12T06:06:26;33.80;;;29.55;;
22780;SDS011;11557;50.884;4.322;2023-02-12T06:08:53;34.13;;;29.27;;
22780;SDS011;11557;50.884;4.322;2023-02-12T06:11:19;32.28;;;28.52;;
22780;SDS011;11557;50.884;4.322;2023-02-12T06:13:45;36.08;;;30.35;;
22780;SDS011;11557;50.884;4.322;2023-02-12T06:16:17;36.03;;;31.10;;
22780;SDS011;11557;50.884;4.322;2023-02-12T06:18:53;39.97;;;32.05;;
22780;SDS011;11557;50.884;4.322;2023-02-12T06:21:20;36.70;;;30.95;;
22780;SDS011;11557;50.884;4.322;2023-02-12T06:23:47;36.03;;;31.95;;
22780;SDS011;11557;50.884;4.322;2023-02-12T06:26:13;39.30;;;31.48;;
22780;SDS011;11557;50.884;4.322;2023-02-12T06:28:40;37.25;;;32.55;;
22780;SDS011;11557;50.884;4.322;2023-02-12T06:31:15;37.72;;;32.67;;
22780;SDS011;11557;50.884;4.322;2023-02-12T06:33:43;39.70;;;32.92;;
22780;SDS011;11557;50.884;4.322;2023-02-12T06:36:08;37.83;;;33.35;;
22780;SDS011;11557;50.884;4.322;2023-02-12T06:38:34;38.20;;;32.50;;
22780;SDS011;11557;50.884;4.322;2023-02-12T06:41:00;38.05;;;32.40;;
22780;SDS011;11557;50.884;4.322;2023-02-12T06:43:26;37.70;;;33.03;;
22780;SDS011;11557;50.884;4.322;2023-02-12T06:45:52;40.70;;;33.65;;
22780;SDS011;11557;50.884;4.322;2023-02-12T06:48:18;38.25;;;33.45;;
22780;SDS011;11557;50.884;4.322;2023-02-12T06:50:44;39.72;;;33.22;;
22780;SDS011;11557;50.884;4.322;2023-02-12T06:53:09;40.10;;;33.75;;
22780;SDS011;11557;50.884;4.322;2023-02-12T06:55:35;40.08;;;33.50;;
22780;SDS011;11557;50.884;4.322;2023-02-12T06:58:00;40.25;;;33.78;;
22780;SDS011;11557;50.884;4.322;2023-02-12T07:00:26;37.58;;;32.65;;
22780;SDS011;11557;50.884;4.322;2023-02-12T07:02:53;40.05;;;32.92;;
22780;SDS011;11557;50.884;4.322;2023-02-12T07:05:20;38.00;;;33.33;;
22780;SDS011;11557;50.884;4.322;2023-02-12T07:07:46;40.85;;;34.95;;
22780;SDS011;11557;50.884;4.322;2023-02-12T07:10:12;39.03;;;33.05;;
22780;SDS011;11557;50.884;4.322;2023-02-12T07:12:38;38.42;;;33.47;;
22780;SDS011;11557;50.884;4.322;2023-02-12T07:15:03;38.83;;;34.40;;
22780;SDS011;11557;50.884;4.322;2023-02-12T07:17:30;38.53;;;34.05;;
22780;SDS011;11557;50.884;4.322;2023-02-12T07:19:55;40.55;;;33.83;;
22780;SDS011;11557;50.884;4.322;2023-02-12T07:22:21;38.05;;;31.45;;
22780;SDS011;11557;50.884;4.322;2023-02-12T07:24:47;37.45;;;31.17;;
22780;SDS011;11557;50.884;4.322;2023-02-12T07:27:13;37.60;;;31.35;;
22780;SDS011;11557;50.884;4.322;2023-02-12T07:29:39;41.30;;;31.60;;
22780;SDS011;11557;50.884;4.322;2023-02-12T07:32:05;38.67;;;31.30;;
22780;SDS011;11557;50.884;4.322;2023-02-12T07:34:30;40.80;;;32.45;;
22780;SDS011;11557;50.884;4.322;2023-02-12T07:36:56;37.17;;;33.05;;
22780;SDS011;11557;50.884;4.322;2023-02-12T07:39:22;40.97;;;33.88;;
22780;SDS011;11557;50.884;4.322;2023-02-12T07:41:48;40.22;;;33.63;;
22780;SDS011;11557;50.884;4.322;2023-02-12T07:44:14;40.97;;;33.03;;
22780;SDS011;11557;50.884;4.322;2023-02-12T07:46:44;39.92;;;34.63;;
22780;SDS011;11557;50.884;4.322;2023-02-12T07:49:11;41.88;;;35.55;;
22780;SDS011;11557;50.884;4.322;2023-02-12T07:51:39;45.85;;;34.30;;
22780;SDS011;11557;50.884;4.322;2023-02-12T07:54:05;38.03;;;32.63;;
22780;SDS011;11557;50.884;4.322;2023-02-12T07:56:32;43.08;;;34.38;;
22780;SDS011;11557;50.884;4.322;2023-02-12T07:59:03;39.88;;;31.35;;
22780;SDS011;11557;50.884;4.322;2023-02-12T08:03:58;44.25;;;33.53;;
22780;SDS011;11557;50.884;4.322;2023-02-12T08:06:27;40.58;;;34.10;;
22780;SDS011;11557;50.884;4.322;2023-02-12T08:08:55;39.22;;;33.35;;
22780;SDS011;11557;50.884;4.322;2023-02-12T08:11:23;44.97;;;34.22;;
22780;SDS011;11557;50.884;4.322;2023-02-12T08:13:50;38.38;;;33.50;;
22780;SDS011;11557;50.884;4.322;2023-02-12T08:16:17;43.42;;;35.38;;
22780;SDS011;11557;50.884;4.322;2023-02-12T08:18:45;47.10;;;35.65;;
22780;SDS011;11557;50.884;4.322;2023-02-12T08:21:13;43.55;;;34.10;;
22780;SDS011;11557;50.884;4.322;2023-02-12T08:23:41;45.78;;;34.83;;
22780;SDS011;11557;50.884;4.322;2023-02-12T08:26:09;41.25;;;34.55;;
22780;SDS011;11557;50.884;4.322;2023-02-12T08:28:40;39.03;;;34.03;;
22780;SDS011;11557;50.884;4.322;2023-02-12T08:31:11;41.15;;;33.88;;
22780;SDS011;11557;50.884;4.322;2023-02-12T08:33:39;38.08;;;33.38;;
22780;SDS011;11557;50.884;4.322;2023-02-12T08:36:06;42.30;;;32.88;;
22780;SDS011;11557;50.884;4.322;2023-02-12T08:38:35;37.53;;;33.28;;
22780;SDS011;11557;50.884;4.322;2023-02-12T08:41:04;38.28;;;32.17;;
22780;SDS011;11557;50.884;4.322;2023-02-12T08:43:32;38.60;;;32.85;;
22780;SDS011;11557;50.884;4.322;2023-02-12T08:46:02;38.35;;;31.67;;
22780;SDS011;11557;50.884;4.322;2023-02-12T08:48:29;39.78;;;34.47;;
22780;SDS011;11557;50.884;4.322;2023-02-12T08:50:55;37.60;;;32.83;;
22780;SDS011;11557;50.884;4.322;2023-02-12T08:53:20;40.05;;;33.05;;
22780;SDS011;11557;50.884;4.322;2023-02-12T08:55:47;39.42;;;31.42;;
22780;SDS011;11557;50.884;4.322;2023-02-12T08:58:13;40.25;;;31.02;;
22780;SDS011;11557;50.884;4.322;2023-02-12T09:00:39;35.92;;;29.45;;
22780;SDS011;11557;50.884;4.322;2023-02-12T09:03:05;39.53;;;30.92;;
22780;SDS011;11557;50.884;4.322;2023-02-12T09:05:30;39.67;;;31.83;;
22780;SDS011;11557;50.884;4.322;2023-02-12T09:07:56;38.42;;;30.50;;
22780;SDS011;11557;50.884;4.322;2023-02-12T09:10:22;43.78;;;33.47;;
22780;SDS011;11557;50.884;4.322;2023-02-12T09:12:48;42.17;;;30.23;;
22780;SDS011;11557;50.884;4.322;2023-02-12T09:15:13;41.72;;;30.88;;
22780;SDS011;11557;50.884;4.322;2023-02-12T09:17:39;34.08;;;28.90;;
22780;SDS011;11557;50.884;4.322;2023-02-12T09:20:07;33.67;;;27.63;;
22780;SDS011;11557;50.884;4.322;2023-02-12T09:22:33;32.50;;;28.65;;
22780;SDS011;11557;50.884;4.322;2023-02-12T09:25:02;39.70;;;29.33;;
22780;SDS011;11557;50.884;4.322;2023-02-12T09:27:30;36.72;;;28.98;;
22780;SDS011;11557;50.884;4.322;2023-02-12T09:29:56;36.80;;;28.50;;
22780;SDS011;11557;50.884;4.322;2023-02-12T09:32:21;34.80;;;27.98;;
22780;SDS011;11557;50.884;4.322;2023-02-12T09:34:47;33.88;;;27.85;;
22780;SDS011;11557;50.884;4.322;2023-02-12T09:37:13;35.08;;;28.60;;
22780;SDS011;11557;50.884;4.322;2023-02-12T09:39:39;32.65;;;28.23;;
22780;SDS011;11557;50.884;4.322;2023-02-12T09:42:08;34.97;;;28.33;;
22780;SDS011;11557;50.884;4.322;2023-02-12T09:45:09;36.95;;;28.20;;
22780;SDS011;11557;50.884;4.322;2023-02-12T09:48:25;35.55;;;28.00;;
22780;SDS011;11557;50.884;4.322;2023-02-12T09:53:20;29.33;;;25.73;;
22780;SDS011;11557;50.884;4.322;2023-02-12T09:55:49;32.78;;;27.00;;
22780;SDS011;11557;50.884;4.322;2023-02-12T09:58:19;35.53;;;27.90;;
22780;SDS011;11557;50.884;4.322;2023-02-12T10:00:54;31.92;;;27.25;;
22780;SDS011;11557;50.884;4.322;2023-02-12T10:03:20;31.23;;;26.52;;
22780;SDS011;11557;50.884;4.322;2023-02-12T10:05:47;30.20;;;24.48;;
22780;SDS011;11557;50.884;4.322;2023-02-12T10:25:45;32.13;;;26.08;;
22780;SDS011;11557;50.884;4.322;2023-02-12T10:30:59;33.45;;;27.17;;
22780;SDS011;11557;50.884;4.322;2023-02-12T10:33:29;31.00;;;25.60;;
22780;SDS011;11557;50.884;4.322;2023-02-12T10:36:05;32.28;;;26.08;;
22780;SDS011;11557;50.884;4.322;2023-02-12T10:38:41;35.60;;;25.65;;
22780;SDS011;11557;50.884;4.322;2023-02-12T10:41:12;37.67;;;28.45;;
22780;SDS011;11557;50.884;4.322;2023-02-12T10:43:40;37.63;;;29.67;;
22780;SDS011;11557;50.884;4.322;2023-02-12T10:46:07;35.30;;;29.25;;
22780;SDS011;11557;50.884;4.322;2023-02-12T10:48:39;36.83;;;30.85;;
22780;SDS011;11557;50.884;4.322;2023-02-12T10:54:39;38.40;;;31.08;;
22780;SDS011;11557;50.884;4.322;2023-02-12T10:57:21;41.07;;;31.13;;
22780;SDS011;11557;50.884;4.322;2023-02-12T10:59:52;43.38;;;30.67;;
22780;SDS011;11557;50.884;4.322;2023-02-12T11:02:32;39.80;;;30.88;;
22780;SDS011;11557;50.884;4.322;2023-02-12T11:04:59;37.95;;;30.38;;
22780;SDS011;11557;50.884;4.322;2023-02-12T11:07:46;37.28;;;28.98;;
22780;SDS011;11557;50.884;4.322;2023-02-12T11:10:25;36.85;;;29.63;;
22780;SDS011;11557;50.884;4.322;2023-02-12T11:12:57;45.13;;;32.33;;
22780;SDS011;11557;50.884;4.322;2023-02-12T11:15:25;41.83;;;33.55;;
22780;SDS011;11557;50.884;4.322;2023-02-12T11:20:26;39.70;;;33.03;;
22780;SDS011;11557;50.884;4.322;2023-02-12T11:22:58;40.17;;;32.38;;
22780;SDS011;11557;50.884;4.322;2023-02-12T11:25:26;39.40;;;30.98;;
22780;SDS011;11557;50.884;4.322;2023-02-12T11:28:01;35.65;;;30.00;;
22780;SDS011;11557;50.884;4.322;2023-02-12T11:30:30;37.25;;;30.30;;
22780;SDS011;11557;50.884;4.322;2023-02-12T11:33:12;39.83;;;30.63;;
22780;SDS011;11557;50.884;4.322;2023-02-12T11:35:53;36.50;;;29.58;;
22780;SDS011;11557;50.884;4.322;2023-02-12T11:38:29;36.15;;;29.38;;
22780;SDS011;11557;50.884;4.322;2023-02-12T11:40:59;36.72;;;28.25;;
22780;SDS011;11557;50.884;4.322;2023-02-12T11:43:29;37.88;;;28.63;;
22780;SDS011;11557;50.884;4.322;2023-02-12T11:45:57;41.75;;;28.90;;
22780;SDS011;11557;50.884;4.322;2023-02-12T11:48:39;37.33;;;27.17;;
22780;SDS011;11557;50.884;4.322;2023-02-12T11:51:17;32.83;;;27.17;;
22780;SDS011;11557;50.884;4.322;2023-02-12T11:53:51;38.70;;;27.65;;
22780;SDS011;11557;50.884;4.322;2023-02-12T11:56:20;38.90;;;28.27;;
22780;SDS011;11557;50.884;4.322;2023-02-12T11:58:46;31.13;;;25.83;;
22780;SDS011;11557;50.884;4.322;2023-02-12T12:04:12;32.72;;;24.33;;
22780;SDS011;11557;50.884;4.322;2023-02-12T12:06:48;30.83;;;25.67;;
22780;SDS011;11557;50.884;4.322;2023-02-12T12:09:38;29.73;;;23.10;;
22780;SDS011;11557;50.884;4.322;2023-02-12T12:15:06;31.95;;;23.90;;
22780;SDS011;11557;50.884;4.322;2023-02-12T12:21:16;27.42;;;23.02;;
22780;SDS011;11557;50.884;4.322;2023-02-12T12:23:55;33.30;;;23.70;;
22780;SDS011;11557;50.884;4.322;2023-02-12T12:26:27;29.23;;;23.95;;
22780;SDS011;11557;50.884;4.322;2023-02-12T12:29:18;30.00;;;24.20;;
22780;SDS011;11557;50.884;4.322;2023-02-12T12:31:55;29.33;;;24.42;;
22780;SDS011;11557;50.884;4.322;2023-02-12T12:34:24;29.27;;;23.45;;
22780;SDS011;11557;50.884;4.322;2023-02-12T12:47:36;25.98;;;21.55;;
22780;SDS011;11557;50.884;4.322;2023-02-12T12:53:18;29.25;;;21.80;;
22780;SDS011;11557;50.884;4.322;2023-02-12T13:04:27;28.88;;;21.35;;
22780;SDS011;11557;50.884;4.322;2023-02-12T13:15:20;31.95;;;23.90;;
22780;SDS011;11557;50.884;4.322;2023-02-12T13:26:15;31.17;;;21.80;;
22780;SDS011;11557;50.884;4.322;2023-02-12T13:28:53;26.40;;;21.05;;
22780;SDS011;11557;50.884;4.322;2023-02-12T13:31:21;27.50;;;21.95;;
22780;SDS011;11557;50.884;4.322;2023-02-12T13:33:54;28.90;;;22.50;;
22780;SDS011;11557;50.884;4.322;2023-02-12T13:36:25;30.40;;;23.85;;
22780;SDS011;11557;50.884;4.322;2023-02-12T13:49:24;32.00;;;23.60;;
22780;SDS011;11557;50.884;4.322;2023-02-12T13:52:11;44.05;;;28.55;;
22780;SDS011;11557;50.884;4.322;2023-02-12T13:54:51;33.78;;;24.40;;
22780;SDS011;11557;50.884;4.322;2023-02-12T13:57:29;31.45;;;23.23;;
22780;SDS011;11557;50.884;4.322;2023-02-12T13:59:55;30.90;;;22.27;;
22780;SDS011;11557;50.884;4.322;2023-02-12T14:05:04;30.73;;;23.35;;
22780;SDS011;11557;50.884;4.322;2023-02-12T14:10:22;30.50;;;22.45;;
22780;SDS011;11557;50.884;4.322;2023-02-12T14:15:35;30.73;;;23.38;;
22780;SDS011;11557;50.884;4.322;2023-02-12T14:18:19;37.45;;;24.65;;
22780;SDS011;11557;50.884;4.322;2023-02-12T14:23:40;35.13;;;24.58;;
22780;SDS011;11557;50.884;4.322;2023-02-12T14:28:46;38.13;;;26.67;;
22780;SDS011;11557;50.884;4.322;2023-02-12T14:34:35;33.40;;;24.83;;
22780;SDS011;11557;50.884;4.322;2023-02-12T14:36:36;34.60;;;25.48;;
22780;SDS011;11557;50.884;4.322;2023-02-12T14:41:49;35.92;;;25.38;;
22780;SDS011;11557;50.884;4.322;2023-02-12T14:49:18;41.40;;;31.02;;
22780;SDS011;11557;50.884;4.322;2023-02-12T14:59:47;34.88;;;26.10;;
22780;SDS011;11557;50.884;4.322;2023-02-12T15:02:18;41.88;;;29.27;;
22780;SDS011;11557;50.884;4.322;2023-02-12T15:04:52;42.97;;;32.28;;
22780;SDS011;11557;50.884;4.322;2023-02-12T15:07:32;40.85;;;27.80;;
22780;SDS011;11557;50.884;4.322;2023-02-12T15:10:20;37.70;;;25.95;;
22780;SDS011;11557;50.884;4.322;2023-02-12T15:15:52;32.50;;;25.02;;
22780;SDS011;11557;50.884;4.322;2023-02-12T15:21:08;35.33;;;23.92;;
22780;SDS011;11557;50.884;4.322;2023-02-12T15:24:03;38.97;;;25.70;;
22780;SDS011;11557;50.884;4.322;2023-02-12T15:26:34;36.33;;;25.20;;
22780;SDS011;11557;50.884;4.322;2023-02-12T15:29:05;33.90;;;25.45;;
22780;SDS011;11557;50.884;4.322;2023-02-12T15:34:05;31.98;;;23.05;;
22780;SDS011;11557;50.884;4.322;2023-02-12T15:36:32;33.92;;;24.23;;
22780;SDS011;11557;50.884;4.322;2023-02-12T15:39:00;41.03;;;27.88;;
22780;SDS011;11557;50.884;4.322;2023-02-12T15:44:02;70.55;;;49.58;;
22780;SDS011;11557;50.884;4.322;2023-02-12T15:47:28;48.15;;;33.97;;
22780;SDS011;11557;50.884;4.322;2023-02-12T15:49:40;47.78;;;35.22;;
22780;SDS011;11557;50.884;4.322;2023-02-12T15:52:07;44.22;;;34.63;;
22780;SDS011;11557;50.884;4.322;2023-02-12T15:54:39;36.65;;;27.38;;
22780;SDS011;11557;50.884;4.322;2023-02-12T15:57:09;36.75;;;26.23;;
22780;SDS011;11557;50.884;4.322;2023-02-12T15:59:37;37.00;;;28.35;;
22780;SDS011;11557;50.884;4.322;2023-02-12T16:02:13;40.05;;;30.42;;
22780;SDS011;11557;50.884;4.322;2023-02-12T16:04:48;39.92;;;32.10;;
22780;SDS011;11557;50.884;4.322;2023-02-12T16:07:16;40.55;;;29.77;;
22780;SDS011;11557;50.884;4.322;2023-02-12T16:09:43;44.90;;;31.30;;
22780;SDS011;11557;50.884;4.322;2023-02-12T16:12:13;43.00;;;32.58;;
22780;SDS011;11557;50.884;4.322;2023-02-12T16:14:44;46.65;;;31.95;;
22780;SDS011;11557;50.884;4.322;2023-02-12T16:19:54;45.92;;;33.55;;
22780;SDS011;11557;50.884;4.322;2023-02-12T16:22:22;40.53;;;30.92;;
22780;SDS011;11557;50.884;4.322;2023-02-12T16:24:57;40.80;;;28.33;;
22780;SDS011;11557;50.884;4.322;2023-02-12T16:27:26;37.45;;;27.63;;
22780;SDS011;11557;50.884;4.322;2023-02-12T16:29:59;44.95;;;30.15;;
22780;SDS011;11557;50.884;4.322;2023-02-12T16:32:32;44.92;;;32.95;;
22780;SDS011;11557;50.884;4.322;2023-02-12T16:50:35;40.25;;;27.33;;
22780;SDS011;11557;50.884;4.322;2023-02-12T16:53:23;41.97;;;30.95;;
22780;SDS011;11557;50.884;4.322;2023-02-12T16:55:55;41.15;;;30.17;;
22780;SDS011;11557;50.884;4.322;2023-02-12T16:58:22;38.53;;;29.42;;
22780;SDS011;11557;50.884;4.322;2023-02-12T17:00:50;40.25;;;29.95;;
22780;SDS011;11557;50.884;4.322;2023-02-12T17:03:16;42.13;;;29.60;;
22780;SDS011;11557;50.884;4.322;2023-02-12T17:05:43;38.42;;;29.10;;
22780;SDS011;11557;50.884;4.322;2023-02-12T17:08:11;44.38;;;32.88;;
22780;SDS011;11557;50.884;4.322;2023-02-12T17:10:38;51.28;;;36.22;;
22780;SDS011;11557;50.884;4.322;2023-02-12T17:13:04;45.67;;;32.22;;
22780;SDS011;11557;50.884;4.322;2023-02-12T17:15:35;47.70;;;33.03;;
22780;SDS011;11557;50.884;4.322;2023-02-12T17:18:06;43.08;;;30.42;;
22780;SDS011;11557;50.884;4.322;2023-02-12T17:20:32;44.28;;;31.52;;
22780;SDS011;11557;50.884;4.322;2023-02-12T17:22:58;45.65;;;32.40;;
22780;SDS011;11557;50.884;4.322;2023-02-12T17:25:24;43.47;;;31.15;;
22780;SDS011;11557;50.884;4.322;2023-02-12T17:27:50;44.67;;;30.80;;
22780;SDS011;11557;50.884;4.322;2023-02-12T17:30:17;41.58;;;30.42;;
22780;SDS011;11557;50.884;4.322;2023-02-12T17:32:45;41.05;;;30.10;;
22780;SDS011;11557;50.884;4.322;2023-02-12T17:35:11;44.95;;;32.47;;
22780;SDS011;11557;50.884;4.322;2023-02-12T17:37:38;42.72;;;30.70;;
22780;SDS011;11557;50.884;4.322;2023-02-12T17:40:04;42.53;;;30.88;;
22780;SDS011;11557;50.884;4.322;2023-02-12T17:42:31;42.17;;;30.67;;
22780;SDS011;11557;50.884;4.322;2023-02-12T17:44:57;41.35;;;30.08;;
22780;SDS011;11557;50.884;4.322;2023-02-12T17:47:23;38.72;;;28.95;;